createdAt,value
2024-05-09T00:01:12.933Z,100.00
2024-05-09T00:04:10.017Z,100.00
2024-05-09T00:07:07.080Z,100.00
2024-05-09T00:10:05.559Z,100.00
2024-05-09T00:13:04.821Z,100.00
2024-05-09T00:16:02.009Z,100.00
2024-05-09T00:18:59.073Z,100.00
2024-05-09T00:21:56.231Z,100.00
2024-05-09T00:24:53.208Z,100.00
2024-05-09T00:27:50.174Z,100.00
2024-05-09T00:30:47.162Z,100.00
2024-05-09T00:33:44.283Z,100.00
2024-05-09T00:36:41.504Z,100.00
2024-05-09T00:39:38.479Z,100.00
2024-05-09T00:42:38.636Z,100.00
2024-05-09T00:45:35.908Z,100.00
2024-05-09T00:48:34.561Z,100.00
2024-05-09T00:51:31.895Z,100.00
2024-05-09T00:54:29.687Z,100.00
2024-05-09T00:57:27.760Z,100.00
2024-05-09T01:00:31.578Z,100.00
2024-05-09T01:03:35.434Z,100.00
2024-05-09T01:06:32.662Z,100.00
2024-05-09T01:09:29.658Z,100.00
2024-05-09T01:12:26.794Z,100.00
2024-05-09T01:15:23.802Z,100.00
2024-05-09T01:18:21.213Z,100.00
2024-05-09T01:21:18.415Z,100.00
2024-05-09T01:24:15.467Z,100.00
2024-05-09T01:27:12.477Z,100.00
2024-05-09T01:30:16.940Z,100.00
2024-05-09T01:33:17.919Z,100.00
2024-05-09T01:36:15.341Z,100.00
2024-05-09T01:39:12.392Z,100.00
2024-05-09T01:42:09.407Z,100.00
2024-05-09T01:45:07.870Z,100.00
2024-05-09T01:48:05.677Z,100.00
2024-05-09T01:51:02.886Z,100.00
2024-05-09T01:53:59.955Z,100.00
2024-05-09T01:56:56.917Z,100.00
2024-05-09T01:59:53.898Z,100.00
2024-05-09T02:02:51.164Z,100.00
2024-05-09T02:05:52.140Z,100.00
2024-05-09T02:08:49.229Z,100.00
2024-05-09T02:11:48.158Z,100.00
2024-05-09T02:14:45.173Z,100.00
2024-05-09T02:17:42.337Z,100.00
2024-05-09T02:20:41.729Z,100.00
2024-05-09T02:23:39.352Z,100.00
2024-05-09T02:26:36.381Z,100.00
2024-05-09T02:29:34.712Z,100.00
2024-05-09T02:32:31.909Z,100.00
2024-05-09T02:35:29.134Z,100.00
2024-05-09T02:38:26.181Z,100.00
2024-05-09T02:41:23.215Z,100.00
2024-05-09T02:44:20.287Z,100.00
2024-05-09T02:47:17.384Z,100.00
2024-05-09T02:50:19.402Z,100.00
2024-05-09T02:53:23.201Z,100.00
2024-05-09T02:56:20.359Z,100.00
2024-05-09T02:59:17.396Z,100.00
2024-05-09T03:02:14.542Z,100.00
2024-05-09T03:05:11.879Z,100.00
2024-05-09T03:08:09.161Z,100.00
2024-05-09T03:11:06.621Z,100.00
2024-05-09T03:14:03.907Z,100.00
2024-05-09T03:17:01.012Z,100.00
2024-05-09T03:19:58.680Z,100.00
2024-05-09T03:22:57.000Z,100.00
2024-05-09T03:25:54.362Z,100.00
2024-05-09T03:28:51.505Z,100.00
2024-05-09T03:31:48.605Z,100.00
2024-05-09T03:34:45.751Z,100.00
2024-05-09T03:37:42.734Z,100.00
2024-05-09T03:40:50.763Z,100.00
2024-05-09T03:43:48.103Z,100.00
2024-05-09T03:46:45.188Z,100.00
2024-05-09T03:49:42.284Z,100.00
2024-05-09T03:52:39.342Z,100.00
2024-05-09T03:55:36.395Z,100.00
2024-05-09T03:58:34.036Z,100.00
2024-05-09T04:01:31.116Z,100.00
2024-05-09T04:04:28.414Z,100.00
2024-05-09T04:07:25.406Z,100.00
2024-05-09T04:10:30.240Z,100.00
2024-05-09T04:13:30.117Z,100.00
2024-05-09T04:16:27.104Z,100.00
2024-05-09T04:19:24.308Z,100.00
2024-05-09T04:22:21.427Z,100.00
2024-05-09T04:25:18.421Z,100.00
2024-05-09T04:28:15.469Z,100.00
2024-05-09T04:31:12.464Z,100.00
2024-05-09T04:34:09.626Z,100.00
2024-05-09T04:37:07.211Z,100.00
2024-05-09T04:40:07.021Z,100.00
2024-05-09T04:43:07.655Z,100.00
2024-05-09T04:46:04.855Z,100.00
2024-05-09T04:49:01.896Z,100.00
2024-05-09T04:51:59.066Z,100.00
2024-05-09T04:54:58.520Z,100.00
2024-05-09T04:57:55.911Z,100.00
2024-05-09T05:00:52.959Z,100.00
2024-05-09T05:03:50.074Z,100.00
2024-05-09T05:06:47.148Z,100.00
2024-05-09T05:09:44.131Z,100.00
2024-05-09T05:12:59.487Z,100.00
2024-05-09T05:15:57.768Z,100.00
2024-05-09T05:18:55.586Z,100.00
2024-05-09T05:21:52.602Z,100.00
2024-05-09T05:24:49.551Z,100.00
2024-05-09T05:27:46.535Z,100.00
2024-05-09T05:30:43.729Z,100.00
2024-05-09T05:33:41.008Z,100.00
2024-05-09T05:36:38.117Z,100.00
2024-05-09T05:39:35.172Z,100.00
2024-05-09T05:42:32.229Z,100.00
2024-05-09T05:45:29.227Z,100.00
2024-05-09T05:48:26.496Z,100.00
2024-05-09T05:51:23.597Z,100.00
2024-05-09T05:54:23.731Z,100.00
2024-05-09T05:57:20.841Z,100.00
2024-05-09T06:00:28.584Z,100.00
2024-05-09T06:03:29.488Z,100.00
2024-05-09T06:06:26.536Z,100.00
2024-05-09T06:09:23.510Z,100.00
2024-05-09T06:12:20.757Z,100.00
2024-05-09T06:15:17.783Z,100.00
2024-05-09T06:18:15.110Z,100.00
2024-05-09T06:21:12.336Z,100.00
2024-05-09T06:24:09.358Z,100.00
2024-05-09T06:27:06.388Z,100.00
2024-05-09T06:30:05.209Z,100.00
2024-05-09T06:33:02.352Z,100.00
2024-05-09T06:35:59.644Z,100.00
2024-05-09T06:38:56.638Z,100.00
2024-05-09T06:41:53.661Z,100.00
2024-05-09T06:44:50.670Z,100.00
2024-05-09T06:47:47.725Z,100.00
2024-05-09T06:50:45.452Z,100.00
2024-05-09T06:53:42.596Z,100.00
2024-05-09T06:56:39.654Z,100.00
2024-05-09T06:59:36.750Z,100.00
2024-05-09T07:02:33.956Z,100.00
2024-05-09T07:05:31.066Z,100.00
2024-05-09T07:08:28.077Z,100.00
2024-05-09T07:11:25.179Z,100.00
2024-05-09T07:14:22.231Z,100.00
2024-05-09T07:17:20.046Z,100.00
2024-05-09T07:20:23.629Z,100.00
2024-05-09T07:23:29.066Z,100.00
2024-05-09T07:26:26.149Z,100.00
2024-05-09T07:29:23.251Z,100.00
2024-05-09T07:32:20.743Z,100.00
2024-05-09T07:35:17.886Z,100.00
2024-05-09T07:38:15.092Z,100.00
2024-05-09T07:41:12.263Z,100.00
2024-05-09T07:44:09.327Z,100.00
2024-05-09T07:48:14.472Z,100.00
2024-05-09T07:53:39.551Z,100.00
2024-05-09T07:56:40.401Z,100.00
2024-05-09T07:59:38.897Z,100.00
2024-05-09T08:02:35.940Z,100.00
2024-05-09T08:05:33.067Z,100.00
2024-05-09T08:08:30.121Z,100.00
2024-05-09T08:11:27.197Z,100.00
2024-05-09T08:14:24.200Z,100.00
2024-05-09T08:17:21.270Z,100.00
2024-05-09T08:20:26.831Z,100.00
2024-05-09T08:23:28.908Z,100.00
2024-05-09T08:26:26.158Z,100.00
2024-05-09T08:29:23.146Z,100.00
2024-05-09T08:32:20.291Z,100.00
2024-05-09T08:35:17.313Z,100.00
2024-05-09T08:38:14.350Z,100.00
2024-05-09T08:41:15.325Z,100.00
2024-05-09T08:44:12.432Z,100.00
2024-05-09T08:47:10.710Z,100.00
2024-05-09T08:50:20.235Z,100.00
2024-05-09T08:53:26.033Z,100.00
2024-05-09T08:56:28.441Z,100.00
2024-05-09T08:59:36.705Z,100.00
2024-05-09T09:02:37.471Z,100.00
2024-05-09T09:05:40.031Z,100.00
2024-05-09T09:08:40.438Z,100.00
2024-05-09T09:11:37.469Z,100.00
2024-05-09T09:14:34.441Z,100.00
2024-05-09T09:17:31.453Z,100.00
2024-05-09T09:20:35.932Z,93.70
2024-05-09T09:23:34.117Z,97.08
2024-05-09T09:26:32.407Z,93.28
2024-05-09T09:29:30.979Z,100.00
2024-05-09T09:32:29.280Z,99.71
2024-05-09T09:35:28.915Z,100.00
2024-05-09T09:38:30.123Z,80.58
2024-05-09T09:41:31.476Z,83.35
2024-05-09T09:44:30.176Z,85.04
2024-05-09T09:47:28.171Z,75.65
2024-05-09T09:50:33.352Z,68.84
2024-05-09T09:53:33.335Z,69.02
2024-05-09T09:56:32.536Z,64.74
2024-05-09T09:59:34.832Z,68.58
2024-05-09T10:02:32.059Z,57.63
2024-05-09T10:05:30.527Z,65.16
2024-05-09T10:08:28.778Z,60.27
2024-05-09T10:11:29.660Z,48.64
2024-05-09T10:14:26.728Z,52.80
2024-05-09T10:17:23.856Z,57.80
2024-05-09T10:20:24.772Z,54.55
2024-05-09T10:23:36.219Z,58.88
2024-05-09T10:26:37.853Z,57.05
2024-05-09T10:29:34.874Z,50.58
2024-05-09T10:32:39.872Z,52.98
2024-05-09T10:35:36.891Z,46.64
2024-05-09T10:38:34.322Z,57.03
2024-05-09T10:41:31.317Z,48.76
2024-05-09T10:44:28.297Z,50.97
2024-05-09T10:47:25.977Z,48.11
2024-05-09T10:50:28.516Z,51.12
2024-05-09T10:53:29.012Z,48.60
2024-05-09T10:56:26.338Z,46.35
2024-05-09T10:59:23.311Z,44.10
2024-05-09T11:02:20.691Z,45.14
2024-05-09T11:05:17.990Z,44.56
2024-05-09T11:08:15.778Z,47.65
2024-05-09T11:11:13.255Z,44.55
2024-05-09T11:14:13.779Z,45.47
2024-05-09T11:17:10.801Z,45.98
2024-05-09T11:20:13.810Z,43.72
2024-05-09T11:23:18.319Z,47.16
2024-05-09T11:26:17.204Z,48.13
2024-05-09T11:29:17.100Z,41.42
2024-05-09T11:32:16.642Z,38.59
2024-05-09T11:35:13.664Z,47.86
2024-05-09T11:38:10.877Z,47.29
2024-05-09T11:41:08.277Z,48.16
2024-05-09T11:44:05.343Z,47.89
2024-05-09T11:47:04.966Z,51.50
2024-05-09T11:50:02.235Z,36.83
2024-05-09T11:52:59.348Z,39.01
2024-05-09T11:55:56.433Z,36.78
2024-05-09T11:58:53.696Z,40.49
2024-05-09T12:01:51.807Z,38.46
2024-05-09T12:04:49.920Z,40.39
2024-05-09T12:07:47.174Z,39.43
2024-05-09T12:10:44.275Z,39.94
2024-05-09T12:13:41.379Z,35.01
2024-05-09T12:16:38.654Z,38.29
2024-05-09T12:19:36.559Z,42.99
2024-05-09T12:22:33.554Z,42.68
2024-05-09T12:25:30.657Z,41.28
2024-05-09T12:28:27.672Z,36.19
2024-05-09T12:31:24.874Z,39.89
2024-05-09T12:34:22.069Z,39.92
2024-05-09T12:37:19.183Z,41.54
2024-05-09T12:40:23.158Z,40.46
2024-05-09T12:43:28.522Z,39.47
2024-05-09T12:46:25.766Z,38.01
2024-05-09T12:49:24.479Z,35.79
2024-05-09T12:52:21.694Z,36.09
2024-05-09T12:55:18.807Z,39.25
2024-05-09T12:58:19.712Z,36.35
2024-05-09T13:01:16.924Z,36.49
2024-05-09T13:04:14.128Z,34.99
2024-05-09T13:07:11.362Z,35.97
2024-05-09T13:10:13.734Z,39.69
2024-05-09T13:13:13.415Z,39.33
2024-05-09T13:16:10.653Z,41.04
2024-05-09T13:19:08.299Z,39.89
2024-05-09T13:22:05.410Z,40.69
2024-05-09T13:25:02.497Z,34.83
2024-05-09T13:27:59.732Z,32.86
2024-05-09T13:30:56.799Z,34.18
2024-05-09T13:33:53.918Z,36.84
2024-05-09T13:36:51.113Z,33.13
2024-05-09T13:39:48.288Z,35.44
2024-05-09T13:42:47.579Z,44.11
2024-05-09T13:45:45.678Z,40.67
2024-05-09T13:48:42.839Z,42.31
2024-05-09T13:51:39.976Z,45.16
2024-05-09T13:54:37.056Z,38.87
2024-05-09T13:57:34.187Z,36.26
2024-05-09T14:00:42.166Z,36.09
2024-05-09T14:03:44.673Z,37.52
2024-05-09T14:06:41.961Z,35.22
2024-05-09T14:09:39.033Z,40.06
2024-05-09T14:12:36.062Z,44.10
2024-05-09T14:15:33.124Z,39.48
2024-05-09T14:18:30.260Z,40.14
2024-05-09T14:21:27.328Z,40.63
2024-05-09T14:24:24.311Z,38.09
2024-05-09T14:27:21.321Z,44.18
2024-05-09T14:30:26.254Z,42.75
2024-05-09T14:33:31.354Z,44.12
2024-05-09T14:36:28.661Z,46.56
2024-05-09T14:39:25.647Z,42.80
2024-05-09T14:42:22.744Z,50.07
2024-05-09T14:45:19.711Z,45.47
2024-05-09T14:48:17.216Z,43.52
2024-05-09T14:51:14.373Z,40.21
2024-05-09T14:54:11.381Z,43.30
2024-05-09T14:57:08.385Z,43.84
2024-05-09T15:00:09.118Z,49.49
2024-05-09T15:03:11.227Z,45.44
2024-05-09T15:06:08.434Z,53.73
2024-05-09T15:09:07.653Z,50.38
2024-05-09T15:12:05.064Z,48.86
2024-05-09T15:15:02.072Z,55.14
2024-05-09T15:17:59.777Z,59.18
2024-05-09T15:20:57.530Z,55.70
2024-05-09T15:23:54.593Z,58.72
2024-05-09T15:26:51.583Z,65.22
2024-05-09T15:29:48.575Z,75.14
2024-05-09T15:32:45.641Z,61.12
2024-05-09T15:35:42.772Z,60.04
2024-05-09T15:38:39.843Z,56.21
2024-05-09T15:41:36.882Z,53.14
2024-05-09T15:44:35.258Z,49.70
2024-05-09T15:47:34.602Z,47.33
2024-05-09T15:50:37.462Z,47.06
2024-05-09T15:53:37.592Z,43.34
2024-05-09T15:56:34.588Z,39.72
2024-05-09T15:59:31.733Z,40.84
2024-05-09T16:02:28.906Z,44.61
2024-05-09T16:05:26.004Z,41.49
2024-05-09T16:08:23.434Z,39.82
2024-05-09T16:11:21.071Z,39.83
2024-05-09T16:14:19.010Z,39.13
2024-05-09T16:17:16.327Z,39.69
2024-05-09T16:20:18.309Z,39.45
2024-05-09T16:23:22.827Z,42.12
2024-05-09T16:26:19.815Z,41.43
2024-05-09T16:29:16.849Z,44.08
2024-05-09T16:32:13.874Z,41.60
2024-05-09T16:35:10.857Z,44.01
2024-05-09T16:38:07.901Z,43.80
2024-05-09T16:41:05.046Z,44.78
2024-05-09T16:44:03.174Z,42.99
2024-05-09T16:47:00.521Z,45.58
2024-05-09T16:49:57.616Z,42.79
2024-05-09T16:52:54.614Z,42.40
2024-05-09T16:55:52.300Z,42.96
2024-05-09T16:58:49.521Z,44.48
2024-05-09T17:01:46.634Z,44.65
2024-05-09T17:04:43.834Z,47.70
2024-05-09T17:07:41.258Z,47.20
2024-05-09T17:10:38.488Z,48.15
2024-05-09T17:13:39.242Z,48.89
2024-05-09T17:16:36.359Z,49.89
2024-05-09T17:19:33.545Z,51.83
2024-05-09T17:22:31.735Z,52.23
2024-05-09T17:25:29.132Z,54.81
2024-05-09T17:28:26.438Z,56.98
2024-05-09T17:31:23.579Z,56.48
2024-05-09T17:34:20.765Z,53.19
2024-05-09T17:37:18.317Z,53.99
2024-05-09T17:40:17.340Z,52.98
2024-05-09T17:43:18.059Z,54.47
2024-05-09T17:46:15.178Z,55.25
2024-05-09T17:49:12.355Z,58.08
2024-05-09T17:52:09.538Z,60.87
2024-05-09T17:55:07.840Z,68.39
2024-05-09T17:58:05.937Z,67.27
2024-05-09T18:01:03.183Z,70.16
2024-05-09T18:04:00.394Z,73.24
2024-05-09T18:06:57.631Z,77.23
2024-05-09T18:09:54.672Z,76.00
2024-05-09T18:12:51.722Z,81.30
2024-05-09T18:15:48.810Z,85.35
2024-05-09T18:18:46.364Z,87.18
2024-05-09T18:21:43.405Z,90.00
2024-05-09T18:24:40.420Z,90.78
2024-05-09T18:27:37.628Z,92.91
2024-05-09T18:30:36.702Z,92.34
2024-05-09T18:33:34.695Z,92.34
2024-05-09T18:36:31.862Z,91.12
2024-05-09T18:39:28.894Z,93.87
2024-05-09T18:42:25.892Z,94.75
2024-05-09T18:45:22.866Z,96.98
2024-05-09T18:48:21.817Z,100.00
2024-05-09T18:51:19.296Z,100.00
2024-05-09T18:54:16.389Z,100.00
2024-05-09T18:57:13.357Z,100.00
2024-05-09T19:00:16.121Z,100.00
2024-05-09T19:03:20.607Z,100.00
2024-05-09T19:06:19.750Z,100.00
2024-05-09T19:09:18.802Z,100.00
2024-05-09T19:12:16.925Z,100.00
2024-05-09T19:15:13.928Z,100.00
2024-05-09T19:18:15.261Z,100.00
2024-05-09T19:21:14.328Z,100.00
2024-05-09T19:24:11.330Z,100.00
2024-05-09T19:27:08.328Z,100.00
2024-05-09T19:30:13.913Z,100.00
2024-05-09T19:33:15.168Z,100.00
2024-05-09T19:36:12.487Z,100.00
2024-05-09T19:39:09.666Z,100.00
2024-05-09T19:42:06.796Z,100.00
2024-05-09T19:45:04.304Z,100.00
2024-05-09T19:48:01.721Z,100.00
2024-05-09T19:50:59.088Z,100.00
2024-05-09T19:53:56.307Z,100.00
2024-05-09T19:56:55.113Z,100.00
2024-05-09T19:59:52.526Z,100.00
2024-05-09T20:02:49.718Z,100.00
2024-05-09T20:05:47.468Z,100.00
2024-05-09T20:08:44.756Z,100.00
2024-05-09T20:11:41.932Z,100.00
2024-05-09T20:14:39.095Z,100.00
2024-05-09T20:17:36.341Z,100.00
2024-05-09T20:20:39.350Z,100.00
2024-05-09T20:23:39.637Z,100.00
2024-05-09T20:26:36.758Z,100.00
2024-05-09T20:29:34.033Z,100.00
2024-05-09T20:32:31.208Z,100.00
2024-05-09T20:35:32.060Z,100.00
2024-05-09T20:38:29.400Z,100.00
2024-05-09T20:41:26.518Z,100.00
2024-05-09T20:44:23.629Z,100.00
2024-05-09T20:47:20.731Z,100.00
2024-05-09T20:50:27.872Z,100.00
2024-05-09T20:53:32.845Z,100.00
2024-05-09T20:56:29.970Z,100.00
2024-05-09T20:59:27.044Z,100.00
2024-05-09T21:02:24.256Z,100.00
2024-05-09T21:05:21.540Z,100.00
2024-05-09T21:08:18.669Z,100.00
2024-05-09T21:11:15.772Z,100.00
2024-05-09T21:14:12.826Z,100.00
2024-05-09T21:17:10.052Z,100.00
2024-05-09T21:20:14.207Z,100.00
2024-05-09T21:23:14.369Z,100.00
2024-05-09T21:26:11.951Z,100.00
2024-05-09T21:29:08.938Z,100.00
2024-05-09T21:32:06.284Z,100.00
2024-05-09T21:35:03.552Z,100.00
2024-05-09T21:38:00.791Z,100.00
2024-05-09T21:40:58.003Z,100.00
2024-05-09T21:43:55.331Z,100.00
2024-05-09T21:46:52.383Z,100.00
2024-05-09T21:49:49.498Z,100.00
2024-05-09T21:52:46.745Z,100.00
2024-05-09T21:55:44.172Z,100.00
2024-05-09T21:58:41.309Z,100.00
2024-05-09T22:01:40.071Z,100.00
2024-05-09T22:04:37.386Z,100.00
2024-05-09T22:07:34.498Z,100.00
2024-05-09T22:10:34.926Z,100.00
2024-05-09T22:13:34.086Z,100.00
2024-05-09T22:16:31.912Z,100.00
2024-05-09T22:19:29.956Z,100.00
2024-05-09T22:22:27.139Z,100.00
2024-05-09T22:25:26.623Z,100.00
2024-05-09T22:28:25.167Z,100.00
2024-05-09T22:31:22.699Z,100.00
2024-05-09T22:34:20.038Z,100.00
2024-05-09T22:37:17.440Z,100.00
2024-05-09T22:40:23.865Z,100.00
2024-05-09T22:43:26.366Z,100.00
2024-05-09T22:46:23.664Z,100.00
2024-05-09T22:49:20.906Z,100.00
2024-05-09T22:52:18.033Z,100.00
2024-05-09T22:55:15.233Z,100.00
2024-05-09T22:58:12.577Z,100.00
2024-05-09T23:01:15.434Z,100.00
2024-05-09T23:04:12.764Z,100.00
2024-05-09T23:07:10.050Z,100.00
2024-05-09T23:10:13.360Z,100.00
2024-05-09T23:13:14.720Z,100.00
2024-05-09T23:16:11.961Z,100.00
2024-05-09T23:19:09.855Z,100.00
2024-05-09T23:22:07.034Z,100.00
2024-05-09T23:25:04.377Z,100.00
2024-05-09T23:28:01.676Z,100.00
2024-05-09T23:30:59.122Z,100.00
2024-05-09T23:33:56.596Z,100.00
2024-05-09T23:36:53.835Z,100.00
2024-05-09T23:39:50.945Z,100.00
2024-05-09T23:42:48.234Z,100.00
2024-05-09T23:45:45.505Z,100.00
2024-05-09T23:48:42.613Z,100.00
2024-05-09T23:51:39.776Z,100.00
2024-05-09T23:54:36.961Z,100.00
2024-05-09T23:57:34.109Z,100.00
